METAR Data
IDs: Format: Raw Decoded Include TAF

Data at: 0534 UTC 24 Sep 2018

KCGC 240515Z AUTO 00000KT 10SM CLR 24/22 A3003 RMK AO2
KCGC 240455Z AUTO 00000KT 10SM CLR 24/22 A3002 RMK AO2 LTG DSNT W
KCGC 240435Z AUTO 00000KT 10SM CLR 25/22 A3003 RMK AO2 LTG DSNT W
KCGC 240415Z AUTO 00000KT 10SM CLR 25/22 A3003 RMK AO2 LTG DSNT SW AND W
KCGC 240355Z AUTO 00000KT 10SM SCT055 25/22 A3003 RMK AO2 LTG DSNT SW AND W
KCGC 240335Z AUTO 00000KT 10SM SCT055 BKN070 25/23 A3003 RMK AO2 LTG DSNT S THRU W
KCGC 240315Z AUTO 00000KT 10SM SCT070 25/22 A3003 RMK AO2 LTG DSNT W
KCGC 240255Z AUTO 10003KT 10SM CLR 26/22 A3002 RMK AO2 LTG DSNT S THRU W
KCGC 240235Z AUTO 00000KT 10SM CLR 26/22 A3002 RMK AO2 LTG DSNT SW
KCGC 240215Z AUTO 09004KT 10SM VCTS CLR 26/22 A3002 RMK AO2 LTG DSNT W
KCGC 240155Z AUTO 09004KT 10SM SCT070 26/22 A3001 RMK AO2 LTG DSNT S THRU W
KCGC 240135Z AUTO 08004KT 10SM VCTS SCT044 SCT055 OVC070 26/22 A3001 RMK AO2 LTG DSNT S AND SW
KCGC 240115Z AUTO 07004KT 10SM SCT042 BKN047 OVC055 26/22 A3000 RMK AO2 LTG DSNT SW
KCGC 240055Z AUTO 05003KT 10SM VCTS BKN044 OVC049 26/23 A3000 RMK AO2 LTG DSNT SW THRU N
KCGC 240035Z AUTO 04006KT 10SM VCTS SCT044 OVC049 26/23 A2999 RMK AO2 LTG DSNT S THRU N
KCGC 240015Z AUTO 03006KT 10SM SCT037 OVC047 26/23 A2998 RMK AO2 LTG DSNT S THRU NW
KCGC 232355Z AUTO 06006KT 040V100 10SM RA BKN039 OVC047 28/22 A2998 RMK AO2 LTG DSNT E AND S P0001
KCGC 232335Z AUTO 00000KT 10SM SCT047 BKN060 OVC085 28/25 A2996 RMK AO2 LTG DSNT S
KCGC 232315Z AUTO 00000KT 10SM OVC065 29/24 A2995 RMK AO2 LTG DSNT NE AND S
KCGC 232255Z AUTO 00000KT 10SM OVC065 29/24 A2994 RMK AO2 LTG DSNT NE AND S
KCGC 232235Z AUTO 00000KT 10SM OVC055 30/23 A2994 RMK AO2 LTG DSNT S
KCGC 232215Z AUTO 00000KT 10SM BKN055 OVC075 30/23 A2994 RMK AO2 LTG DSNT S
KCGC 232155Z AUTO 20004KT 10SM BKN055 OVC065 31/23 A2994 RMK AO2 LTG DSNT S
KCGC 232135Z AUTO 13004KT 10SM SCT065 BKN075 33/21 A2993 RMK AO2 LTG DSNT S AND SW
KCGC 232115Z AUTO 12003KT 10SM VCTS SCT065 BKN075 32/21 A2994 RMK AO2 LTG DSNT S
KCGC 232055Z AUTO 12005KT 10SM BKN065 32/20 A2994 RMK AO2 LTG DSNT S
KCGC 232035Z AUTO 11005KT 10SM BKN065 32/21 A2993 RMK AO2 LTG DSNT S
KCGC 232015Z AUTO 11003KT 10SM SCT055 32/21 A2994 RMK AO2 LTG DSNT SE
KCGC 231955Z AUTO 05003KT 10SM SCT055 33/20 A2995 RMK AO2
KCGC 231935Z AUTO 14004KT 10SM CLR 33/20 A2995 RMK AO2
KCGC 231915Z AUTO 11004KT 10SM SCT060 33/20 A2996 RMK AO2
KCGC 231855Z AUTO 11003KT 10SM SCT060 33/20 A2997 RMK AO2
KCGC 231835Z AUTO 10004KT 10SM SCT047 SCT060 33/21 A2998 RMK AO2 LTG DSNT SE
KCGC 231815Z AUTO 05005KT 10SM SCT049 32/21 A2999 RMK AO2
KCGC 231755Z AUTO 06005KT 10SM SCT060 32/21 A2999 RMK AO2 LTG DSNT SE
KCGC 231735Z AUTO 11004KT 10SM SCT040 SCT050 31/21 A3001 RMK AO2
KCGC 231715Z AUTO 08004KT 10SM SCT037 SCT044 SCT050 31/22 A3001 RMK AO2
KCGC 231655Z AUTO 10005KT 10SM SCT035 SCT045 SCT050 31/22 A3002 RMK AO2
KCGC 231635Z AUTO 11004KT 10SM SCT035 SCT045 31/22 A3002 RMK AO2
KCGC 231615Z AUTO 10003KT 10SM SCT030 SCT037 SCT047 31/22 A3003 RMK AO2
KCGC 231555Z AUTO 13006KT 10SM BKN030 BKN040 BKN049 30/23 A3003 RMK AO2 LTG DSNT SE
KCGC 231535Z AUTO 11005KT 10SM SCT028 SCT034 SCT040 30/23 A3004 RMK AO2
KCGC 231515Z AUTO 09007KT 10SM BKN026 BKN034 30/23 A3004 RMK AO2
KCGC 231455Z AUTO 08007KT 10SM BKN024 BKN034 29/23 A3004 RMK AO2
KCGC 231435Z AUTO 11005KT 10SM SCT022 30/23 A3004 RMK AO2
KCGC 231415Z AUTO 09006KT 10SM SCT020 28/23 A3004 RMK AO2
KCGC 231355Z AUTO 09006KT 10SM CLR 28/23 A3003 RMK AO2
KCGC 231335Z AUTO 11004KT 10SM CLR 27/23 A3003 RMK AO2
KCGC 231315Z AUTO 08006KT 10SM CLR 26/23 A3002 RMK AO2
KCGC 231255Z AUTO 09004KT 10SM CLR 25/23 A3002 RMK AO2
KCGC 231235Z AUTO 08003KT 10SM CLR 24/22 A3002 RMK AO2
KCGC 231215Z AUTO 00000KT 10SM CLR 23/22 A3001 RMK AO2
KCGC 231155Z AUTO 00000KT 10SM CLR 22/22 A3001 RMK AO2 LTG DSNT S
KCGC 231135Z AUTO 00000KT 10SM CLR 22/22 A3000 RMK AO2
KCGC 231115Z AUTO 00000KT 10SM CLR 22/22 A3000 RMK AO2
KCGC 231055Z AUTO 00000KT 10SM CLR 22/22 A2999 RMK AO2
KCGC 231035Z AUTO 00000KT 10SM CLR 22/22 A2998 RMK AO2
KCGC 231015Z AUTO 00000KT 10SM CLR 22/22 A2998 RMK AO2
KCGC 230955Z AUTO 00000KT 10SM CLR 22/22 A2997 RMK AO2
KCGC 230935Z AUTO 00000KT 10SM CLR 22/22 A2997 RMK AO2
KCGC 230915Z AUTO 00000KT 10SM CLR 22/22 A2997 RMK AO2
KCGC 230855Z AUTO 00000KT 10SM CLR 22/21 A2998 RMK AO2
KCGC 230835Z AUTO 00000KT 10SM CLR 22/22 A2998 RMK AO2 LTG DSNT W
KCGC 230815Z AUTO 00000KT 10SM CLR 22/22 A2998 RMK AO2
KCGC 230755Z AUTO 00000KT 10SM CLR 22/22 A2999 RMK AO2
KCGC 230735Z AUTO 00000KT 10SM CLR 22/22 A2999 RMK AO2
KCGC 230715Z AUTO 00000KT 10SM CLR 22/22 A2999 RMK AO2
KCGC 230655Z AUTO 00000KT 10SM CLR 22/22 A2999 RMK AO2
KCGC 230635Z AUTO 00000KT 10SM CLR 22/22 A3000 RMK AO2 LTG DSNT W
KCGC 230615Z AUTO 00000KT 10SM CLR 23/22 A3001 RMK AO2 LTG DSNT W
KCGC 230555Z AUTO 00000KT 10SM CLR 23/22 A3001 RMK AO2 LTG DSNT SW
KCGC 230535Z AUTO 00000KT 10SM CLR 23/22 A3002 RMK AO2 LTG DSNT SW AND W
KCGC 230515Z AUTO 00000KT 10SM CLR 23/22 A3002 RMK AO2 LTG DSNT W
KCGC 230455Z AUTO 00000KT 10SM CLR 23/22 A3003 RMK AO2 LTG DSNT W
KCGC 230435Z AUTO 00000KT 10SM CLR 24/22 A3004 RMK AO2 LTG DSNT SW
KCGC 230415Z AUTO 00000KT 10SM CLR 24/22 A3004 RMK AO2
KCGC 230355Z AUTO 00000KT 10SM CLR 24/22 A3004 RMK AO2 LTG DSNT SW AND NW
KCGC 230335Z AUTO 00000KT 10SM CLR 25/22 A3003 RMK AO2 LTG DSNT SW AND NW
KCGC 230315Z AUTO 00000KT 10SM CLR 25/22 A3003 RMK AO2
KCGC 230255Z AUTO 00000KT 10SM CLR 25/22 A3003 RMK AO2 LTG DSNT S
KCGC 230235Z AUTO 00000KT 10SM CLR 25/22 A3003 RMK AO2 LTG DSNT NW
KCGC 230215Z AUTO 00000KT 10SM CLR 25/22 A3003 RMK AO2 LTG DSNT S AND NW
KCGC 230155Z AUTO 07003KT 10SM CLR 26/22 A3002 RMK AO2 LTG DSNT NW
KCGC 230135Z AUTO 00000KT 10SM CLR 26/22 A3001 RMK AO2 LTG DSNT NW
KCGC 230115Z AUTO 00000KT 10SM CLR 25/22 A2999 RMK AO2 LTG DSNT W AND NW
KCGC 230055Z AUTO 09003KT 10SM CLR 26/22 A2998 RMK AO2 LTG DSNT W AND NW
KCGC 230035Z AUTO 00000KT 10SM CLR 26/22 A2998 RMK AO2 LTG DSNT W AND NW
KCGC 230015Z AUTO 00000KT 10SM CLR 26/22 A2998 RMK AO2 LTG DSNT SW THRU NW
KCGC 222355Z AUTO 00000KT 10SM VCTS CLR 26/22 A2998 RMK AO2 LTG DSNT W
KCGC 222335Z AUTO 00000KT 10SM CLR 27/22 A2998 RMK AO2 LTG DSNT SW AND W
KCGC 222315Z AUTO 09003KT 10SM CLR 28/22 A2997 RMK AO2 LTG DSNT SW AND W
KCGC 222255Z AUTO 12003KT 10SM CLR 29/22 A2997 RMK AO2
KCGC 222235Z AUTO 10008KT 10SM SCT090 30/21 A2996 RMK AO2 LTG DSNT SW
KCGC 222215Z AUTO 10005KT 10SM SCT090 31/21 A2996 RMK AO2 LTG DSNT SW
KCGC 222155Z AUTO 10006KT 10SM SCT090 31/21 A2996 RMK AO2 LTG DSNT SW
KCGC 222135Z AUTO 10008KT 10SM BKN090 31/22 A2996 RMK AO2 LTG DSNT S
KCGC 222115Z AUTO 09007KT 10SM SCT048 SCT055 OVC090 31/21 A2996 RMK AO2
KCGC 222055Z AUTO 08008KT 10SM SCT048 SCT090 33/21 A2996 RMK AO2
KCGC 222035Z AUTO 11008KT 10SM SCT047 32/21 A2996 RMK AO2
KCGC 222015Z AUTO 08005KT 10SM SCT047 SCT080 32/22 A2996 RMK AO2
KCGC 221955Z AUTO 10006KT 10SM SCT047 BKN080 31/21 A2997 RMK AO2
KCGC 221935Z AUTO 10003KT 10SM SCT047 SCT080 32/21 A2998 RMK AO2
KCGC 221915Z AUTO 08006KT 10SM CLR 32/21 A2998 RMK AO2
KCGC 221855Z AUTO 08011KT 10SM SCT046 32/21 A2999 RMK AO2
KCGC 221835Z AUTO 06007KT 10SM SCT042 SCT060 SCT070 31/21 A3000 RMK AO2
KCGC 221815Z AUTO 06010KT 10SM SCT042 SCT060 BKN080 31/21 A3001 RMK AO2
KCGC 221755Z AUTO 10006KT 10SM SCT042 32/22 A3001 RMK AO2
KCGC 221735Z AUTO 09007KT 10SM SCT047 SCT055 32/22 A3002 RMK AO2